createdAt,value
2022-12-31T00:02:25.332Z,4.08
2022-12-31T00:04:51.864Z,3.58
2022-12-31T00:07:19.337Z,3.28
2022-12-31T00:09:48.621Z,3.37
2022-12-31T00:12:16.083Z,3.30
2022-12-31T00:14:43.240Z,3.13
2022-12-31T00:17:09.772Z,3.08
2022-12-31T00:19:36.348Z,3.27
2022-12-31T00:22:02.805Z,3.32
2022-12-31T00:24:29.225Z,3.23
2022-12-31T00:26:55.695Z,3.12
2022-12-31T00:29:22.160Z,2.81
2022-12-31T00:31:48.564Z,2.45
2022-12-31T00:34:15.002Z,2.38
2022-12-31T00:36:41.454Z,2.29
2022-12-31T00:39:07.872Z,2.49
2022-12-31T00:41:34.291Z,2.15
2022-12-31T00:44:00.719Z,2.19
2022-12-31T00:46:27.264Z,2.12
2022-12-31T00:48:53.729Z,1.96
2022-12-31T00:51:20.136Z,2.22
2022-12-31T00:53:46.570Z,3.04
2022-12-31T00:56:13.109Z,3.73
2022-12-31T00:58:39.552Z,3.90
2022-12-31T01:01:06.080Z,3.34
2022-12-31T01:03:32.622Z,2.70
2022-12-31T01:05:59.066Z,1.73
2022-12-31T01:08:25.569Z,1.20
2022-12-31T01:10:52.043Z,0.93
2022-12-31T01:13:18.489Z,0.98
2022-12-31T01:15:44.993Z,1.16
2022-12-31T01:18:11.484Z,1.05
2022-12-31T01:20:38.460Z,0.71
2022-12-31T01:23:04.894Z,0.77
2022-12-31T01:25:31.331Z,0.87
2022-12-31T01:27:57.822Z,0.88
2022-12-31T01:30:24.271Z,1.11
2022-12-31T01:32:50.720Z,1.00
2022-12-31T01:35:17.182Z,0.98
2022-12-31T01:37:43.626Z,0.79
2022-12-31T01:40:10.143Z,0.71
2022-12-31T01:42:36.572Z,0.76
2022-12-31T01:45:02.990Z,0.82
2022-12-31T01:47:29.407Z,0.75
2022-12-31T01:49:55.825Z,0.73
2022-12-31T01:52:22.349Z,0.80
2022-12-31T01:54:48.794Z,0.86
2022-12-31T01:57:15.220Z,0.82
2022-12-31T01:59:41.656Z,0.92
2022-12-31T02:02:08.130Z,0.92
2022-12-31T02:04:34.613Z,0.97
2022-12-31T02:07:01.037Z,0.93
2022-12-31T02:09:27.477Z,1.28
2022-12-31T02:11:53.901Z,1.42
2022-12-31T02:14:20.310Z,1.36
2022-12-31T02:16:46.748Z,1.47
2022-12-31T02:19:13.174Z,1.50
2022-12-31T02:21:39.631Z,1.24
2022-12-31T02:24:06.198Z,1.28
2022-12-31T02:26:35.016Z,0.97
2022-12-31T02:29:01.427Z,1.01
2022-12-31T02:31:29.271Z,0.91
2022-12-31T02:33:55.755Z,1.00
2022-12-31T02:36:22.489Z,0.90
2022-12-31T02:38:48.914Z,0.84
2022-12-31T02:41:15.347Z,0.70
2022-12-31T02:43:41.848Z,0.58
2022-12-31T02:46:09.354Z,0.44
2022-12-31T02:48:36.989Z,0.48
2022-12-31T02:51:05.808Z,0.48
2022-12-31T02:53:32.241Z,0.50
2022-12-31T02:55:59.388Z,0.59
2022-12-31T02:58:25.878Z,0.52
2022-12-31T03:00:55.792Z,0.54
2022-12-31T03:03:22.745Z,0.42
2022-12-31T03:05:49.481Z,0.57
2022-12-31T03:08:18.004Z,0.53
2022-12-31T03:10:45.509Z,0.39
2022-12-31T03:13:11.927Z,0.47
2022-12-31T03:15:39.084Z,0.57
2022-12-31T03:18:05.729Z,0.41
2022-12-31T03:20:34.687Z,0.55
2022-12-31T03:23:03.900Z,0.60
2022-12-31T03:25:30.551Z,0.53
2022-12-31T03:27:58.030Z,0.61
2022-12-31T03:30:24.469Z,0.63
2022-12-31T03:38:22.685Z,0.55
2022-12-31T03:40:50.369Z,0.79
2022-12-31T03:43:23.688Z,0.58
2022-12-31T03:45:52.708Z,0.57
2022-12-31T03:48:42.624Z,0.65
2022-12-31T03:51:18.687Z,0.54
2022-12-31T03:53:49.329Z,0.71
2022-12-31T03:56:15.960Z,0.66
2022-12-31T03:58:46.737Z,0.82
2022-12-31T04:01:13.266Z,0.78
2022-12-31T04:03:40.002Z,0.85
2022-12-31T04:06:07.552Z,1.02
2022-12-31T04:08:34.195Z,1.17
2022-12-31T04:11:09.690Z,1.19
2022-12-31T04:13:36.714Z,1.23
2022-12-31T04:21:23.665Z,1.30
2022-12-31T04:23:50.135Z,1.35
2022-12-31T04:26:16.606Z,1.32
2022-12-31T04:28:47.269Z,1.34
2022-12-31T04:31:13.707Z,1.38
2022-12-31T04:36:26.662Z,1.18
2022-12-31T04:38:53.310Z,1.20
2022-12-31T04:41:29.810Z,1.23
2022-12-31T04:43:56.229Z,1.14
2022-12-31T04:46:26.593Z,1.06
2022-12-31T04:48:53.047Z,1.07
2022-12-31T04:51:24.127Z,0.99
2022-12-31T04:53:51.302Z,1.08
2022-12-31T04:56:18.903Z,1.17
2022-12-31T04:58:45.372Z,1.10
2022-12-31T05:01:12.816Z,1.03
2022-12-31T05:03:40.085Z,1.01
2022-12-31T05:06:20.270Z,1.06
2022-12-31T05:08:50.686Z,0.95
2022-12-31T05:11:18.782Z,1.00
2022-12-31T05:13:58.582Z,0.92
2022-12-31T05:16:26.033Z,0.69
2022-12-31T05:19:00.329Z,0.59
2022-12-31T05:21:27.306Z,0.66
2022-12-31T05:23:54.228Z,0.60
2022-12-31T05:26:21.126Z,0.68
2022-12-31T05:28:52.726Z,0.71
2022-12-31T05:31:21.683Z,0.77
2022-12-31T05:33:49.613Z,0.83
2022-12-31T05:36:16.816Z,0.84
2022-12-31T05:41:34.194Z,0.74
2022-12-31T05:44:00.595Z,0.78
2022-12-31T05:46:27.274Z,0.66
2022-12-31T05:49:03.580Z,0.81
2022-12-31T05:51:31.326Z,0.72
2022-12-31T05:54:03.522Z,0.68
2022-12-31T05:56:30.156Z,0.54
2022-12-31T05:58:59.288Z,0.59
2022-12-31T06:01:25.858Z,0.50
2022-12-31T06:03:52.360Z,0.46
2022-12-31T06:06:18.786Z,0.58
2022-12-31T06:08:46.215Z,0.61
2022-12-31T06:11:12.887Z,0.57
2022-12-31T06:13:42.992Z,0.42
2022-12-31T06:16:11.732Z,0.42
2022-12-31T06:18:40.146Z,0.34
2022-12-31T06:21:06.795Z,0.50
2022-12-31T06:23:37.205Z,0.72
2022-12-31T06:26:03.641Z,0.66
2022-12-31T06:28:30.054Z,0.66
2022-12-31T06:33:39.981Z,0.84
2022-12-31T06:36:10.485Z,1.05
2022-12-31T06:38:37.336Z,0.83
2022-12-31T06:41:04.328Z,0.78
2022-12-31T06:43:31.030Z,0.87
2022-12-31T06:45:58.130Z,1.15
2022-12-31T06:48:24.604Z,1.06
2022-12-31T06:50:51.047Z,0.82
2022-12-31T06:53:18.072Z,0.70
2022-12-31T06:55:44.760Z,0.92
2022-12-31T06:58:11.224Z,0.94
2022-12-31T07:00:39.709Z,0.94
2022-12-31T07:03:06.377Z,0.82
2022-12-31T07:05:32.832Z,0.93
2022-12-31T07:08:00.302Z,0.98
2022-12-31T07:10:29.835Z,1.07
2022-12-31T07:12:56.879Z,0.98
2022-12-31T07:15:23.511Z,1.00
2022-12-31T07:17:50.948Z,1.03
2022-12-31T07:20:17.393Z,1.13
2022-12-31T07:22:43.862Z,0.95
2022-12-31T07:25:10.308Z,0.88
2022-12-31T07:27:36.715Z,0.96
2022-12-31T07:30:05.337Z,1.06
2022-12-31T07:32:31.912Z,1.05
2022-12-31T07:34:58.325Z,1.15
2022-12-31T07:37:24.859Z,0.93
2022-12-31T07:39:51.305Z,0.97
2022-12-31T07:42:17.752Z,1.07
2022-12-31T07:44:44.166Z,1.02
2022-12-31T07:47:10.601Z,1.09
2022-12-31T07:49:37.028Z,1.01
2022-12-31T07:52:03.501Z,0.90
2022-12-31T07:54:29.964Z,1.03
2022-12-31T07:56:56.368Z,1.15
2022-12-31T07:59:24.634Z,1.09
2022-12-31T08:01:51.345Z,1.18
2022-12-31T08:04:17.950Z,1.32
2022-12-31T08:06:44.384Z,1.16
2022-12-31T08:09:10.846Z,1.03
2022-12-31T08:11:37.272Z,0.93
2022-12-31T08:14:03.711Z,1.20
2022-12-31T08:16:30.142Z,1.13
2022-12-31T08:18:56.637Z,1.23
2022-12-31T08:21:23.059Z,1.19
2022-12-31T08:23:49.482Z,1.24
2022-12-31T08:26:15.889Z,1.27
2022-12-31T08:28:42.382Z,1.13
2022-12-31T08:31:08.852Z,0.99
2022-12-31T08:33:35.355Z,1.17
2022-12-31T08:36:01.799Z,1.09
2022-12-31T08:38:28.254Z,1.14
2022-12-31T08:40:54.673Z,1.17
2022-12-31T08:43:21.082Z,1.19
2022-12-31T08:45:47.560Z,1.07
2022-12-31T08:48:14.004Z,0.95
2022-12-31T08:50:40.387Z,1.05
2022-12-31T08:53:06.845Z,1.02
2022-12-31T08:55:33.275Z,0.96
2022-12-31T08:57:59.673Z,1.03
2022-12-31T09:00:26.140Z,1.03
2022-12-31T09:02:52.574Z,1.01
2022-12-31T09:05:18.957Z,0.91
2022-12-31T09:07:45.356Z,1.05
2022-12-31T09:10:11.802Z,1.01
2022-12-31T09:12:38.281Z,0.99
2022-12-31T09:15:04.745Z,1.24
2022-12-31T09:17:32.996Z,1.08
2022-12-31T09:20:00.016Z,0.94
2022-12-31T09:22:30.205Z,1.02
2022-12-31T09:24:56.807Z,0.99
2022-12-31T09:27:27.412Z,0.97
2022-12-31T09:29:54.329Z,1.04
2022-12-31T09:32:20.855Z,1.11
2022-12-31T09:34:47.286Z,0.96
2022-12-31T09:37:13.700Z,1.05
2022-12-31T09:39:40.113Z,0.94
2022-12-31T09:42:06.578Z,0.91
2022-12-31T09:44:32.997Z,1.02
2022-12-31T09:46:59.444Z,0.99
2022-12-31T09:49:25.878Z,0.93
2022-12-31T09:51:52.300Z,1.02
2022-12-31T09:54:18.752Z,1.12
2022-12-31T09:56:45.173Z,1.06
2022-12-31T09:59:11.824Z,0.99
2022-12-31T10:01:38.324Z,0.88
2022-12-31T10:04:04.769Z,0.94
2022-12-31T10:06:31.207Z,0.93
2022-12-31T10:08:57.641Z,0.89
2022-12-31T10:11:24.089Z,0.91
2022-12-31T10:13:50.495Z,0.99
2022-12-31T10:16:17.054Z,0.97
2022-12-31T10:18:43.596Z,0.87
2022-12-31T10:21:10.055Z,0.83
2022-12-31T10:23:36.575Z,0.82
2022-12-31T10:26:03.138Z,0.85
2022-12-31T10:28:29.599Z,0.77
2022-12-31T10:30:56.057Z,0.70
2022-12-31T10:33:22.616Z,0.75
2022-12-31T10:35:49.034Z,0.81
2022-12-31T10:38:15.560Z,0.68
2022-12-31T10:40:41.989Z,0.79
2022-12-31T10:43:08.398Z,0.82
2022-12-31T10:45:34.838Z,0.83
2022-12-31T10:48:01.249Z,0.86
2022-12-31T10:50:27.641Z,0.88
2022-12-31T10:52:54.038Z,1.03
2022-12-31T10:55:22.291Z,0.88
2022-12-31T10:57:48.724Z,0.86
2022-12-31T11:00:15.439Z,0.88
2022-12-31T11:02:41.950Z,0.90
2022-12-31T11:05:19.537Z,0.88
2022-12-31T11:07:45.980Z,0.84
2022-12-31T11:10:12.375Z,0.83
2022-12-31T11:12:38.807Z,0.79
2022-12-31T11:15:05.188Z,0.87
2022-12-31T11:17:31.609Z,0.86
2022-12-31T11:19:58.007Z,0.86
2022-12-31T11:22:24.391Z,0.91
2022-12-31T11:24:50.805Z,0.75
2022-12-31T11:27:17.223Z,0.95
2022-12-31T11:29:43.671Z,0.93
2022-12-31T11:32:10.251Z,0.82
2022-12-31T11:34:36.684Z,0.81
2022-12-31T11:37:03.082Z,0.89
2022-12-31T11:39:31.394Z,0.91
2022-12-31T11:41:58.053Z,0.78
2022-12-31T11:44:24.460Z,0.91
2022-12-31T11:46:50.939Z,0.96
2022-12-31T11:49:17.356Z,0.83
2022-12-31T11:51:49.966Z,0.99
2022-12-31T11:54:16.978Z,0.90
2022-12-31T11:56:43.393Z,0.80
2022-12-31T11:59:13.151Z,0.71
2022-12-31T12:01:42.284Z,0.87
2022-12-31T12:04:09.423Z,0.71
2022-12-31T12:06:37.038Z,0.91
2022-12-31T12:09:03.493Z,0.83
2022-12-31T12:11:29.914Z,0.69
2022-12-31T12:13:56.351Z,0.83
2022-12-31T12:16:22.842Z,0.77
2022-12-31T12:18:49.302Z,0.92
2022-12-31T12:21:15.735Z,0.83
2022-12-31T12:23:42.151Z,0.80
2022-12-31T12:26:08.763Z,0.71
2022-12-31T12:28:39.621Z,0.74
2022-12-31T12:31:10.983Z,0.89
2022-12-31T12:33:38.554Z,0.80
2022-12-31T12:36:06.159Z,0.89
2022-12-31T12:38:33.745Z,0.84
2022-12-31T12:41:00.344Z,0.87
2022-12-31T12:43:26.956Z,0.78
2022-12-31T12:45:54.532Z,0.85
2022-12-31T12:48:21.112Z,0.87
2022-12-31T12:50:47.695Z,0.79
2022-12-31T12:53:14.336Z,0.87
2022-12-31T12:55:41.921Z,0.88
2022-12-31T12:58:09.926Z,0.88
2022-12-31T13:00:38.202Z,0.84
2022-12-31T13:03:04.759Z,0.94
2022-12-31T13:05:32.438Z,0.98
2022-12-31T13:07:59.067Z,0.86
2022-12-31T13:10:25.665Z,0.87
2022-12-31T13:15:38.929Z,0.91
2022-12-31T13:18:05.414Z,0.92
2022-12-31T13:20:32.150Z,0.89
2022-12-31T13:22:58.763Z,1.01
2022-12-31T13:25:25.568Z,0.92
2022-12-31T13:27:53.010Z,0.84
2022-12-31T13:30:19.683Z,1.05
2022-12-31T13:32:46.158Z,0.98
2022-12-31T13:35:12.922Z,0.83
2022-12-31T13:37:39.479Z,0.94
2022-12-31T13:40:06.280Z,0.97
2022-12-31T13:42:32.858Z,0.97
2022-12-31T13:44:59.484Z,0.83
2022-12-31T13:47:26.083Z,0.97
2022-12-31T13:49:52.533Z,0.94
2022-12-31T13:52:19.160Z,0.95
2022-12-31T13:54:46.207Z,0.97
2022-12-31T13:57:12.812Z,0.94
2022-12-31T13:59:40.523Z,0.98
2022-12-31T14:02:08.149Z,1.06
2022-12-31T14:04:35.643Z,1.00
2022-12-31T14:07:03.210Z,1.20
2022-12-31T14:09:30.125Z,1.08
2022-12-31T14:11:58.423Z,1.20
2022-12-31T14:14:25.047Z,1.09
2022-12-31T14:16:52.695Z,1.13
2022-12-31T14:19:20.244Z,1.08
2022-12-31T14:21:46.845Z,0.99
2022-12-31T14:24:13.300Z,1.03
2022-12-31T14:26:40.022Z,1.02
2022-12-31T14:29:07.659Z,1.27
2022-12-31T14:31:35.233Z,1.13
2022-12-31T14:34:02.807Z,1.02
2022-12-31T14:36:29.239Z,1.00
2022-12-31T14:38:56.003Z,1.14
2022-12-31T14:41:22.856Z,1.02
2022-12-31T14:43:50.202Z,1.08
2022-12-31T14:46:17.888Z,1.26
2022-12-31T14:48:45.384Z,1.13
2022-12-31T14:51:11.987Z,1.15
2022-12-31T14:53:39.018Z,0.99
2022-12-31T14:56:06.183Z,1.19
2022-12-31T14:58:33.802Z,1.22
2022-12-31T15:01:01.749Z,1.16
2022-12-31T15:03:30.155Z,1.14
2022-12-31T15:05:57.770Z,1.02
2022-12-31T15:08:24.356Z,1.10
2022-12-31T15:10:50.955Z,1.20
2022-12-31T15:13:18.551Z,1.30
2022-12-31T15:15:45.142Z,1.22
2022-12-31T15:18:11.585Z,1.24
2022-12-31T15:20:38.157Z,1.32
2022-12-31T15:23:04.550Z,1.22
2022-12-31T15:25:40.504Z,1.16
2022-12-31T15:28:09.168Z,1.17
2022-12-31T15:30:35.809Z,1.27
2022-12-31T15:33:02.424Z,1.26
2022-12-31T15:35:31.304Z,1.30
2022-12-31T15:37:57.755Z,1.45
2022-12-31T15:40:24.189Z,1.45
2022-12-31T15:42:50.672Z,1.29
2022-12-31T15:45:17.119Z,1.50
2022-12-31T15:50:25.601Z,1.39
2022-12-31T15:52:53.181Z,1.37
2022-12-31T15:55:20.783Z,1.33
2022-12-31T15:57:48.351Z,1.52
2022-12-31T16:00:17.016Z,1.45
2022-12-31T16:02:45.702Z,1.53
2022-12-31T16:07:53.803Z,1.52
2022-12-31T16:10:21.402Z,1.55
2022-12-31T16:12:50.079Z,1.47
2022-12-31T16:15:18.628Z,1.47
2022-12-31T16:17:46.208Z,1.63
2022-12-31T16:20:12.842Z,1.65
2022-12-31T16:22:40.424Z,1.60
2022-12-31T16:27:53.674Z,1.66
2022-12-31T16:30:21.254Z,1.64
2022-12-31T16:32:48.281Z,1.67
2022-12-31T16:35:21.631Z,1.61
2022-12-31T16:37:50.108Z,1.73
2022-12-31T16:40:16.670Z,1.89
2022-12-31T16:42:44.633Z,1.71
2022-12-31T16:45:11.173Z,1.69
2022-12-31T16:47:37.597Z,1.80
2022-12-31T16:50:05.046Z,1.61
2022-12-31T16:52:31.856Z,1.55
2022-12-31T16:54:59.218Z,1.73
2022-12-31T16:57:25.657Z,1.78
2022-12-31T16:59:53.447Z,1.74
2022-12-31T17:02:20.083Z,1.74
2022-12-31T17:04:53.705Z,1.67
2022-12-31T17:07:22.278Z,2.76
2022-12-31T17:09:48.870Z,4.84
2022-12-31T17:12:15.336Z,7.83
2022-12-31T17:14:42.060Z,9.32
2022-12-31T17:17:08.648Z,5.97
2022-12-31T17:19:35.252Z,3.51
2022-12-31T17:22:01.782Z,2.53
2022-12-31T17:24:28.464Z,2.87
2022-12-31T17:26:55.053Z,2.93
2022-12-31T17:29:26.308Z,3.85
2022-12-31T17:31:53.102Z,3.02
2022-12-31T17:34:19.572Z,2.53
2022-12-31T17:36:46.435Z,3.39
2022-12-31T17:39:12.905Z,4.34
2022-12-31T17:41:39.349Z,5.75
2022-12-31T17:44:05.786Z,4.71
2022-12-31T17:46:32.256Z,4.63
2022-12-31T17:48:58.708Z,5.50
2022-12-31T17:51:26.055Z,5.97
2022-12-31T17:53:53.661Z,4.58
2022-12-31T17:56:21.236Z,3.56
2022-12-31T17:58:47.657Z,5.33
2022-12-31T18:01:14.532Z,3.47
2022-12-31T18:03:41.173Z,3.91
2022-12-31T18:06:12.917Z,4.05
2022-12-31T18:08:42.643Z,4.43
2022-12-31T18:11:10.812Z,5.09
2022-12-31T18:13:37.242Z,6.10
2022-12-31T18:16:03.711Z,6.26
2022-12-31T18:18:30.159Z,9.72
2022-12-31T18:20:56.570Z,9.68
2022-12-31T18:23:22.999Z,5.67
2022-12-31T18:25:49.668Z,8.25
2022-12-31T18:28:16.112Z,4.93
2022-12-31T18:30:42.557Z,6.34
2022-12-31T18:33:09.039Z,5.30
2022-12-31T18:38:21.904Z,6.92
2022-12-31T18:40:48.458Z,6.71
2022-12-31T18:43:14.906Z,6.57
2022-12-31T18:45:41.350Z,7.35
2022-12-31T18:48:07.797Z,6.04
2022-12-31T18:50:35.371Z,13.22
2022-12-31T18:53:02.972Z,11.25
2022-12-31T18:55:29.575Z,10.42
2022-12-31T18:57:56.028Z,9.79
2022-12-31T19:00:22.468Z,8.30
2022-12-31T19:02:48.919Z,6.25
2022-12-31T19:05:15.332Z,5.23
2022-12-31T19:07:41.753Z,4.26
2022-12-31T19:10:08.292Z,3.98
2022-12-31T19:12:34.735Z,7.90
2022-12-31T19:15:01.155Z,10.53
2022-12-31T19:17:27.576Z,6.31
2022-12-31T19:19:54.018Z,5.83
2022-12-31T19:22:20.422Z,7.10
2022-12-31T19:24:46.846Z,6.07
2022-12-31T19:27:13.281Z,4.66
2022-12-31T19:29:39.719Z,7.60
2022-12-31T19:32:06.442Z,6.51
2022-12-31T19:34:34.017Z,6.63
2022-12-31T19:37:00.623Z,8.41
2022-12-31T19:39:27.074Z,8.18
2022-12-31T19:41:58.844Z,8.88
2022-12-31T19:44:25.661Z,10.64
2022-12-31T19:46:52.061Z,5.83
2022-12-31T19:49:18.600Z,8.14
2022-12-31T19:51:45.011Z,10.29
2022-12-31T19:54:11.426Z,11.08
2022-12-31T19:56:37.848Z,7.51
2022-12-31T19:59:04.254Z,6.52
2022-12-31T20:01:30.730Z,8.15
2022-12-31T20:03:57.247Z,6.15
2022-12-31T20:06:23.689Z,5.49
2022-12-31T20:08:50.108Z,4.71
2022-12-31T20:11:16.521Z,3.63
2022-12-31T20:13:42.980Z,3.48
2022-12-31T20:16:09.481Z,3.42
2022-12-31T20:18:35.907Z,3.75
2022-12-31T20:21:02.434Z,9.11
2022-12-31T20:23:28.902Z,22.86
2022-12-31T20:25:55.347Z,7.88
2022-12-31T20:28:21.803Z,9.58
2022-12-31T20:30:48.305Z,10.71
2022-12-31T20:33:19.073Z,6.74
2022-12-31T20:35:45.811Z,3.81
2022-12-31T20:38:12.238Z,3.56
2022-12-31T20:40:44.608Z,3.62
2022-12-31T20:43:13.001Z,3.41
2022-12-31T20:45:39.404Z,3.28
2022-12-31T20:48:05.815Z,3.46
2022-12-31T20:50:32.227Z,3.76
2022-12-31T20:52:58.636Z,4.36
2022-12-31T20:55:25.067Z,8.10
2022-12-31T20:57:51.473Z,7.94
2022-12-31T21:00:17.890Z,7.10
2022-12-31T21:02:47.836Z,6.21
2022-12-31T21:05:18.197Z,5.13
2022-12-31T21:07:44.740Z,5.58
2022-12-31T21:10:11.182Z,5.05
2022-12-31T21:12:37.599Z,4.53
2022-12-31T21:15:04.004Z,4.73
2022-12-31T21:17:30.435Z,4.57
2022-12-31T21:19:56.857Z,4.16
2022-12-31T21:22:23.272Z,4.13
2022-12-31T21:24:49.688Z,4.09
2022-12-31T21:27:16.102Z,3.95
2022-12-31T21:30:16.406Z,4.19
2022-12-31T21:32:28.883Z,6.56
2022-12-31T21:35:31.166Z,9.94
2022-12-31T21:37:59.198Z,6.15
2022-12-31T21:40:26.908Z,5.41
2022-12-31T21:42:53.332Z,5.41
2022-12-31T21:45:19.748Z,3.92
2022-12-31T21:47:47.794Z,3.65
2022-12-31T21:50:14.367Z,3.72
2022-12-31T21:52:40.796Z,3.69
2022-12-31T21:55:07.234Z,3.70
2022-12-31T21:57:51.995Z,3.58
2022-12-31T22:00:42.374Z,3.76
2022-12-31T22:03:06.558Z,3.66
2022-12-31T22:05:33.059Z,3.74
2022-12-31T22:07:59.504Z,3.77
2022-12-31T22:10:25.953Z,3.76
2022-12-31T22:12:52.471Z,3.97
2022-12-31T22:15:18.903Z,3.77
2022-12-31T22:17:45.378Z,3.66
2022-12-31T22:20:28.114Z,3.78
2022-12-31T22:22:55.195Z,3.93
2022-12-31T22:25:21.703Z,3.83
2022-12-31T22:28:04.456Z,3.53
2022-12-31T22:30:34.545Z,3.69
2022-12-31T22:33:00.977Z,3.61
2022-12-31T22:35:27.392Z,3.76
2022-12-31T22:37:57.552Z,3.48
2022-12-31T22:40:25.549Z,3.40
2022-12-31T22:42:51.957Z,3.63
2022-12-31T22:45:18.465Z,3.46
2022-12-31T22:47:44.874Z,3.35
2022-12-31T22:50:11.300Z,3.44
2022-12-31T22:52:37.762Z,3.53
2022-12-31T22:55:04.176Z,3.24
2022-12-31T22:57:30.585Z,3.24
2022-12-31T22:59:57.029Z,3.48
2022-12-31T23:02:23.528Z,3.41
2022-12-31T23:04:49.955Z,3.27
2022-12-31T23:07:16.467Z,3.08
2022-12-31T23:09:42.901Z,3.07
2022-12-31T23:12:09.321Z,3.19
2022-12-31T23:14:35.770Z,3.58
2022-12-31T23:17:30.351Z,3.32
2022-12-31T23:19:48.607Z,3.55
2022-12-31T23:22:15.038Z,3.51
2022-12-31T23:24:41.460Z,3.39
2022-12-31T23:27:07.914Z,3.50
2022-12-31T23:29:34.335Z,3.14
2022-12-31T23:32:00.775Z,3.77
2022-12-31T23:34:27.241Z,3.64
2022-12-31T23:36:53.677Z,3.58
2022-12-31T23:39:20.216Z,3.55
2022-12-31T23:41:46.637Z,3.42
2022-12-31T23:44:13.027Z,3.57
2022-12-31T23:46:39.609Z,3.72
2022-12-31T23:49:06.071Z,3.60
2022-12-31T23:51:32.489Z,3.51
2022-12-31T23:53:58.901Z,3.64
2022-12-31T23:56:25.294Z,3.51
2022-12-31T23:58:51.721Z,3.91
